sensor_id;sensor_type;location;lat;lon;timestamp;P1;durP1;ratioP1;P2;durP2;ratioP2
25731;SDS011;13585;50.864;4.406;2023-11-19T00:01:34;1.70;;;1.00;;
25731;SDS011;13585;50.864;4.406;2023-11-19T00:04:16;2.35;;;0.90;;
25731;SDS011;13585;50.864;4.406;2023-11-19T00:06:53;2.00;;;0.95;;
25731;SDS011;13585;50.864;4.406;2023-11-19T00:09:22;1.60;;;0.90;;
25731;SDS011;13585;50.864;4.406;2023-11-19T00:12:00;2.22;;;0.93;;
25731;SDS011;13585;50.864;4.406;2023-11-19T00:14:34;1.75;;;1.15;;
25731;SDS011;13585;50.864;4.406;2023-11-19T00:17:09;1.48;;;0.90;;
25731;SDS011;13585;50.864;4.406;2023-11-19T00:19:50;0.98;;;0.77;;
25731;SDS011;13585;50.864;4.406;2023-11-19T00:22:19;1.63;;;0.80;;
25731;SDS011;13585;50.864;4.406;2023-11-19T00:25:01;3.28;;;0.90;;
25731;SDS011;13585;50.864;4.406;2023-11-19T00:27:28;2.17;;;0.90;;
25731;SDS011;13585;50.864;4.406;2023-11-19T00:30:06;0.90;;;0.80;;
25731;SDS011;13585;50.864;4.406;2023-11-19T00:32:36;2.15;;;0.93;;
25731;SDS011;13585;50.864;4.406;2023-11-19T00:35:12;2.42;;;1.00;;
25731;SDS011;13585;50.864;4.406;2023-11-19T00:37:44;3.25;;;1.10;;
25731;SDS011;13585;50.864;4.406;2023-11-19T00:42:57;1.38;;;0.90;;
25731;SDS011;13585;50.864;4.406;2023-11-19T00:45:28;1.35;;;1.05;;
25731;SDS011;13585;50.864;4.406;2023-11-19T00:47:54;1.85;;;0.93;;
25731;SDS011;13585;50.864;4.406;2023-11-19T00:50:20;1.70;;;1.20;;
25731;SDS011;13585;50.864;4.406;2023-11-19T00:52:45;2.13;;;1.10;;
25731;SDS011;13585;50.864;4.406;2023-11-19T00:55:12;2.08;;;1.17;;
25731;SDS011;13585;50.864;4.406;2023-11-19T00:57:38;1.95;;;1.10;;
25731;SDS011;13585;50.864;4.406;2023-11-19T01:00:04;2.63;;;1.13;;
25731;SDS011;13585;50.864;4.406;2023-11-19T01:02:57;1.75;;;1.00;;
25731;SDS011;13585;50.864;4.406;2023-11-19T01:05:25;1.88;;;1.15;;
25731;SDS011;13585;50.864;4.406;2023-11-19T01:07:51;1.40;;;1.08;;
25731;SDS011;13585;50.864;4.406;2023-11-19T01:10:27;1.25;;;0.88;;
25731;SDS011;13585;50.864;4.406;2023-11-19T01:13:05;1.70;;;0.90;;
25731;SDS011;13585;50.864;4.406;2023-11-19T01:15:34;2.10;;;1.10;;
25731;SDS011;13585;50.864;4.406;2023-11-19T01:18:02;1.85;;;1.00;;
25731;SDS011;13585;50.864;4.406;2023-11-19T01:20:30;2.03;;;0.90;;
25731;SDS011;13585;50.864;4.406;2023-11-19T01:23:04;2.85;;;1.17;;
25731;SDS011;13585;50.864;4.406;2023-11-19T01:25:30;2.40;;;0.98;;
25731;SDS011;13585;50.864;4.406;2023-11-19T01:27:56;3.28;;;1.08;;
25731;SDS011;13585;50.864;4.406;2023-11-19T01:30:24;3.88;;;1.27;;
25731;SDS011;13585;50.864;4.406;2023-11-19T01:32:50;2.55;;;1.27;;
25731;SDS011;13585;50.864;4.406;2023-11-19T01:35:15;2.40;;;1.05;;
25731;SDS011;13585;50.864;4.406;2023-11-19T01:37:41;2.25;;;1.02;;
25731;SDS011;13585;50.864;4.406;2023-11-19T01:40:06;1.98;;;1.00;;
25731;SDS011;13585;50.864;4.406;2023-11-19T01:42:38;1.70;;;1.00;;
25731;SDS011;13585;50.864;4.406;2023-11-19T01:45:05;1.75;;;1.13;;
25731;SDS011;13585;50.864;4.406;2023-11-19T01:47:37;1.27;;;0.93;;
25731;SDS011;13585;50.864;4.406;2023-11-19T01:50:12;2.78;;;1.30;;
25731;SDS011;13585;50.864;4.406;2023-11-19T01:52:53;2.00;;;0.82;;
25731;SDS011;13585;50.864;4.406;2023-11-19T01:55:22;1.27;;;0.90;;
25731;SDS011;13585;50.864;4.406;2023-11-19T01:57:48;1.98;;;1.10;;
25731;SDS011;13585;50.864;4.406;2023-11-19T02:00:45;3.65;;;1.20;;
25731;SDS011;13585;50.864;4.406;2023-11-19T02:03:11;2.15;;;1.20;;
25731;SDS011;13585;50.864;4.406;2023-11-19T02:05:54;1.85;;;1.10;;
25731;SDS011;13585;50.864;4.406;2023-11-19T02:08:31;2.25;;;1.15;;
25731;SDS011;13585;50.864;4.406;2023-11-19T02:10:57;1.77;;;1.15;;
25731;SDS011;13585;50.864;4.406;2023-11-19T02:13:23;2.80;;;1.17;;
25731;SDS011;13585;50.864;4.406;2023-11-19T02:18:27;3.15;;;1.15;;
25731;SDS011;13585;50.864;4.406;2023-11-19T02:20:59;3.08;;;1.38;;
25731;SDS011;13585;50.864;4.406;2023-11-19T02:23:26;3.20;;;1.23;;
25731;SDS011;13585;50.864;4.406;2023-11-19T02:28:33;2.78;;;1.10;;
25731;SDS011;13585;50.864;4.406;2023-11-19T02:31:00;1.85;;;1.08;;
25731;SDS011;13585;50.864;4.406;2023-11-19T02:33:41;2.55;;;1.30;;
25731;SDS011;13585;50.864;4.406;2023-11-19T02:36:07;2.72;;;1.30;;
25731;SDS011;13585;50.864;4.406;2023-11-19T02:38:34;4.70;;;1.23;;
25731;SDS011;13585;50.864;4.406;2023-11-19T02:41:02;3.63;;;1.50;;
25731;SDS011;13585;50.864;4.406;2023-11-19T02:43:48;2.30;;;1.20;;
25731;SDS011;13585;50.864;4.406;2023-11-19T02:46:14;3.30;;;1.42;;
25731;SDS011;13585;50.864;4.406;2023-11-19T02:48:40;3.17;;;1.38;;
25731;SDS011;13585;50.864;4.406;2023-11-19T02:51:06;4.93;;;1.00;;
25731;SDS011;13585;50.864;4.406;2023-11-19T02:53:35;3.28;;;1.25;;
25731;SDS011;13585;50.864;4.406;2023-11-19T02:56:18;2.75;;;1.23;;
25731;SDS011;13585;50.864;4.406;2023-11-19T02:59:22;2.25;;;1.15;;
25731;SDS011;13585;50.864;4.406;2023-11-19T03:01:53;4.68;;;1.48;;
25731;SDS011;13585;50.864;4.406;2023-11-19T03:04:20;3.85;;;1.13;;
25731;SDS011;13585;50.864;4.406;2023-11-19T03:06:48;3.00;;;1.30;;
25731;SDS011;13585;50.864;4.406;2023-11-19T03:09:13;2.78;;;1.08;;
25731;SDS011;13585;50.864;4.406;2023-11-19T03:11:45;1.88;;;1.30;;
25731;SDS011;13585;50.864;4.406;2023-11-19T03:14:19;2.13;;;1.20;;
25731;SDS011;13585;50.864;4.406;2023-11-19T03:16:57;2.40;;;1.15;;
25731;SDS011;13585;50.864;4.406;2023-11-19T03:25:45;2.78;;;1.20;;
25731;SDS011;13585;50.864;4.406;2023-11-19T03:28:16;2.95;;;1.13;;
25731;SDS011;13585;50.864;4.406;2023-11-19T03:30:41;4.97;;;1.48;;
25731;SDS011;13585;50.864;4.406;2023-11-19T03:33:07;2.55;;;1.20;;
25731;SDS011;13585;50.864;4.406;2023-11-19T03:35:33;2.85;;;1.25;;
25731;SDS011;13585;50.864;4.406;2023-11-19T03:37:58;3.63;;;1.27;;
25731;SDS011;13585;50.864;4.406;2023-11-19T03:40:24;2.38;;;1.20;;
25731;SDS011;13585;50.864;4.406;2023-11-19T03:42:50;3.25;;;1.30;;
25731;SDS011;13585;50.864;4.406;2023-11-19T03:45:16;4.00;;;1.73;;
25731;SDS011;13585;50.864;4.406;2023-11-19T03:47:41;2.92;;;1.40;;
25731;SDS011;13585;50.864;4.406;2023-11-19T03:50:07;4.65;;;1.35;;
25731;SDS011;13585;50.864;4.406;2023-11-19T03:52:42;6.10;;;2.00;;
25731;SDS011;13585;50.864;4.406;2023-11-19T03:55:14;3.28;;;1.33;;
25731;SDS011;13585;50.864;4.406;2023-11-19T03:57:45;4.72;;;2.00;;
25731;SDS011;13585;50.864;4.406;2023-11-19T04:00:18;3.65;;;1.40;;
25731;SDS011;13585;50.864;4.406;2023-11-19T04:02:46;3.22;;;1.40;;
25731;SDS011;13585;50.864;4.406;2023-11-19T04:05:12;3.97;;;1.55;;
25731;SDS011;13585;50.864;4.406;2023-11-19T04:07:37;4.10;;;1.55;;
25731;SDS011;13585;50.864;4.406;2023-11-19T04:10:03;4.60;;;1.50;;
25731;SDS011;13585;50.864;4.406;2023-11-19T04:12:29;2.75;;;1.15;;
25731;SDS011;13585;50.864;4.406;2023-11-19T04:14:54;4.22;;;1.50;;
25731;SDS011;13585;50.864;4.406;2023-11-19T04:17:21;4.82;;;1.50;;
25731;SDS011;13585;50.864;4.406;2023-11-19T04:19:48;4.38;;;1.65;;
25731;SDS011;13585;50.864;4.406;2023-11-19T04:22:13;4.82;;;1.77;;
25731;SDS011;13585;50.864;4.406;2023-11-19T04:24:39;2.85;;;1.15;;
25731;SDS011;13585;50.864;4.406;2023-11-19T04:27:05;3.22;;;1.33;;
25731;SDS011;13585;50.864;4.406;2023-11-19T04:29:31;5.10;;;1.40;;
25731;SDS011;13585;50.864;4.406;2023-11-19T04:31:57;3.22;;;1.55;;
25731;SDS011;13585;50.864;4.406;2023-11-19T04:34:24;4.72;;;1.70;;
25731;SDS011;13585;50.864;4.406;2023-11-19T04:36:49;3.90;;;1.65;;
25731;SDS011;13585;50.864;4.406;2023-11-19T04:39:15;4.07;;;1.67;;
25731;SDS011;13585;50.864;4.406;2023-11-19T04:41:50;4.10;;;1.70;;
25731;SDS011;13585;50.864;4.406;2023-11-19T04:44:19;5.38;;;1.80;;
25731;SDS011;13585;50.864;4.406;2023-11-19T04:46:44;6.25;;;1.70;;
25731;SDS011;13585;50.864;4.406;2023-11-19T04:49:10;4.18;;;1.20;;
25731;SDS011;13585;50.864;4.406;2023-11-19T04:51:43;3.15;;;1.50;;
25731;SDS011;13585;50.864;4.406;2023-11-19T04:54:09;3.63;;;1.50;;
25731;SDS011;13585;50.864;4.406;2023-11-19T04:56:38;3.78;;;1.50;;
25731;SDS011;13585;50.864;4.406;2023-11-19T04:59:04;4.35;;;1.30;;
25731;SDS011;13585;50.864;4.406;2023-11-19T05:01:31;5.10;;;1.70;;
25731;SDS011;13585;50.864;4.406;2023-11-19T05:03:58;4.88;;;1.60;;
25731;SDS011;13585;50.864;4.406;2023-11-19T05:06:30;3.88;;;1.65;;
25731;SDS011;13585;50.864;4.406;2023-11-19T05:08:57;3.50;;;1.50;;
25731;SDS011;13585;50.864;4.406;2023-11-19T05:11:26;6.32;;;1.08;;
25731;SDS011;13585;50.864;4.406;2023-11-19T05:13:53;3.38;;;1.42;;
25731;SDS011;13585;50.864;4.406;2023-11-19T05:16:19;6.35;;;1.73;;
25731;SDS011;13585;50.864;4.406;2023-11-19T05:18:48;4.20;;;1.30;;
25731;SDS011;13585;50.864;4.406;2023-11-19T05:21:17;5.15;;;1.55;;
25731;SDS011;13585;50.864;4.406;2023-11-19T05:23:43;6.03;;;1.70;;
25731;SDS011;13585;50.864;4.406;2023-11-19T05:26:19;4.78;;;1.77;;
25731;SDS011;13585;50.864;4.406;2023-11-19T05:28:58;4.28;;;1.50;;
25731;SDS011;13585;50.864;4.406;2023-11-19T05:31:26;6.65;;;1.52;;
25731;SDS011;13585;50.864;4.406;2023-11-19T05:33:52;4.70;;;1.40;;
25731;SDS011;13585;50.864;4.406;2023-11-19T05:36:20;4.38;;;1.67;;
25731;SDS011;13585;50.864;4.406;2023-11-19T05:38:55;3.78;;;1.38;;
25731;SDS011;13585;50.864;4.406;2023-11-19T05:41:20;4.65;;;1.60;;
25731;SDS011;13585;50.864;4.406;2023-11-19T05:43:58;6.20;;;1.63;;
25731;SDS011;13585;50.864;4.406;2023-11-19T05:46:23;7.00;;;2.10;;
25731;SDS011;13585;50.864;4.406;2023-11-19T05:48:50;4.88;;;1.70;;
25731;SDS011;13585;50.864;4.406;2023-11-19T05:51:17;6.03;;;1.58;;
25731;SDS011;13585;50.864;4.406;2023-11-19T05:53:55;5.88;;;1.70;;
25731;SDS011;13585;50.864;4.406;2023-11-19T05:56:22;4.13;;;1.42;;
25731;SDS011;13585;50.864;4.406;2023-11-19T05:58:48;7.20;;;2.30;;
25731;SDS011;13585;50.864;4.406;2023-11-19T06:01:14;6.07;;;1.92;;
25731;SDS011;13585;50.864;4.406;2023-11-19T06:03:40;3.63;;;1.38;;
25731;SDS011;13585;50.864;4.406;2023-11-19T06:06:08;4.35;;;1.38;;
25731;SDS011;13585;50.864;4.406;2023-11-19T06:08:37;5.20;;;2.00;;
25731;SDS011;13585;50.864;4.406;2023-11-19T06:11:14;7.70;;;1.90;;
25731;SDS011;13585;50.864;4.406;2023-11-19T06:13:43;3.40;;;1.45;;
25731;SDS011;13585;50.864;4.406;2023-11-19T06:16:09;4.57;;;1.60;;
25731;SDS011;13585;50.864;4.406;2023-11-19T06:18:36;6.70;;;1.70;;
25731;SDS011;13585;50.864;4.406;2023-11-19T06:21:01;5.22;;;1.55;;
25731;SDS011;13585;50.864;4.406;2023-11-19T06:23:27;4.85;;;1.77;;
25731;SDS011;13585;50.864;4.406;2023-11-19T06:25:53;4.45;;;1.67;;
25731;SDS011;13585;50.864;4.406;2023-11-19T06:28:18;4.45;;;1.73;;
25731;SDS011;13585;50.864;4.406;2023-11-19T06:30:44;4.78;;;1.90;;
25731;SDS011;13585;50.864;4.406;2023-11-19T06:33:12;5.90;;;1.80;;
25731;SDS011;13585;50.864;4.406;2023-11-19T06:35:38;4.40;;;1.35;;
25731;SDS011;13585;50.864;4.406;2023-11-19T06:38:03;5.20;;;1.83;;
25731;SDS011;13585;50.864;4.406;2023-11-19T06:40:30;4.53;;;1.60;;
25731;SDS011;13585;50.864;4.406;2023-11-19T06:42:56;3.97;;;1.40;;
25731;SDS011;13585;50.864;4.406;2023-11-19T06:45:31;5.30;;;1.73;;
25731;SDS011;13585;50.864;4.406;2023-11-19T06:48:12;5.05;;;1.88;;
25731;SDS011;13585;50.864;4.406;2023-11-19T06:50:38;4.75;;;1.75;;
25731;SDS011;13585;50.864;4.406;2023-11-19T06:53:15;4.43;;;1.58;;
25731;SDS011;13585;50.864;4.406;2023-11-19T06:55:41;5.07;;;1.48;;
25731;SDS011;13585;50.864;4.406;2023-11-19T06:58:06;6.35;;;2.17;;
25731;SDS011;13585;50.864;4.406;2023-11-19T07:00:32;5.13;;;1.70;;
25731;SDS011;13585;50.864;4.406;2023-11-19T07:03:13;7.57;;;2.08;;
25731;SDS011;13585;50.864;4.406;2023-11-19T07:05:39;7.50;;;1.67;;
25731;SDS011;13585;50.864;4.406;2023-11-19T07:08:10;5.20;;;1.60;;
25731;SDS011;13585;50.864;4.406;2023-11-19T07:10:36;5.35;;;1.63;;
25731;SDS011;13585;50.864;4.406;2023-11-19T07:13:02;5.07;;;1.75;;
25731;SDS011;13585;50.864;4.406;2023-11-19T07:15:43;5.55;;;2.00;;
25731;SDS011;13585;50.864;4.406;2023-11-19T07:18:08;6.53;;;1.90;;
25731;SDS011;13585;50.864;4.406;2023-11-19T07:20:34;5.53;;;1.70;;
25731;SDS011;13585;50.864;4.406;2023-11-19T07:23:00;6.95;;;2.00;;
25731;SDS011;13585;50.864;4.406;2023-11-19T07:25:38;6.57;;;2.20;;
25731;SDS011;13585;50.864;4.406;2023-11-19T07:28:03;5.88;;;1.73;;
25731;SDS011;13585;50.864;4.406;2023-11-19T07:30:29;6.40;;;2.15;;
25731;SDS011;13585;50.864;4.406;2023-11-19T07:32:58;6.22;;;2.13;;
25731;SDS011;13585;50.864;4.406;2023-11-19T07:35:26;4.95;;;2.15;;
25731;SDS011;13585;50.864;4.406;2023-11-19T07:37:52;5.25;;;1.85;;
25731;SDS011;13585;50.864;4.406;2023-11-19T07:40:17;7.82;;;1.98;;
25731;SDS011;13585;50.864;4.406;2023-11-19T07:42:49;5.32;;;1.70;;
25731;SDS011;13585;50.864;4.406;2023-11-19T07:45:16;6.40;;;1.63;;
25731;SDS011;13585;50.864;4.406;2023-11-19T07:47:42;4.72;;;1.55;;
25731;SDS011;13585;50.864;4.406;2023-11-19T07:50:11;8.20;;;2.60;;
25731;SDS011;13585;50.864;4.406;2023-11-19T07:52:39;8.52;;;2.03;;
25731;SDS011;13585;50.864;4.406;2023-11-19T07:55:05;8.80;;;1.77;;
25731;SDS011;13585;50.864;4.406;2023-11-19T07:57:31;5.60;;;1.65;;
25731;SDS011;13585;50.864;4.406;2023-11-19T07:59:57;6.57;;;2.13;;
25731;SDS011;13585;50.864;4.406;2023-11-19T08:02:26;9.98;;;2.03;;
25731;SDS011;13585;50.864;4.406;2023-11-19T08:04:51;6.85;;;2.20;;
25731;SDS011;13585;50.864;4.406;2023-11-19T08:07:23;5.82;;;1.75;;
25731;SDS011;13585;50.864;4.406;2023-11-19T08:09:49;5.20;;;1.80;;
25731;SDS011;13585;50.864;4.406;2023-11-19T08:12:14;7.07;;;2.00;;
25731;SDS011;13585;50.864;4.406;2023-11-19T08:14:42;5.70;;;1.77;;
25731;SDS011;13585;50.864;4.406;2023-11-19T08:17:09;7.15;;;2.10;;
25731;SDS011;13585;50.864;4.406;2023-11-19T08:19:50;8.60;;;1.75;;
25731;SDS011;13585;50.864;4.406;2023-11-19T08:22:31;5.20;;;1.88;;
25731;SDS011;13585;50.864;4.406;2023-11-19T08:25:12;10.65;;;2.22;;
25731;SDS011;13585;50.864;4.406;2023-11-19T08:27:44;7.55;;;1.98;;
25731;SDS011;13585;50.864;4.406;2023-11-19T08:30:14;4.13;;;1.48;;
25731;SDS011;13585;50.864;4.406;2023-11-19T08:32:51;8.23;;;1.90;;
25731;SDS011;13585;50.864;4.406;2023-11-19T08:35:22;9.32;;;2.15;;
25731;SDS011;13585;50.864;4.406;2023-11-19T08:38:03;6.85;;;1.98;;
25731;SDS011;13585;50.864;4.406;2023-11-19T08:40:35;6.80;;;1.88;;
25731;SDS011;13585;50.864;4.406;2023-11-19T08:43:07;6.78;;;1.95;;
25731;SDS011;13585;50.864;4.406;2023-11-19T08:45:32;5.18;;;1.58;;
25731;SDS011;13585;50.864;4.406;2023-11-19T08:47:58;6.90;;;1.83;;
25731;SDS011;13585;50.864;4.406;2023-11-19T08:50:24;5.35;;;1.95;;
25731;SDS011;13585;50.864;4.406;2023-11-19T08:52:57;6.57;;;2.15;;
25731;SDS011;13585;50.864;4.406;2023-11-19T08:55:23;6.85;;;1.95;;
25731;SDS011;13585;50.864;4.406;2023-11-19T08:57:48;6.32;;;1.95;;
25731;SDS011;13585;50.864;4.406;2023-11-19T09:00:14;6.70;;;2.13;;
25731;SDS011;13585;50.864;4.406;2023-11-19T09:02:49;6.13;;;1.77;;
25731;SDS011;13585;50.864;4.406;2023-11-19T09:05:17;6.95;;;1.90;;
25731;SDS011;13585;50.864;4.406;2023-11-19T09:07:43;7.25;;;2.38;;
25731;SDS011;13585;50.864;4.406;2023-11-19T09:10:09;8.23;;;2.00;;
25731;SDS011;13585;50.864;4.406;2023-11-19T09:12:36;8.68;;;2.08;;
25731;SDS011;13585;50.864;4.406;2023-11-19T09:15:08;6.03;;;1.95;;
25731;SDS011;13585;50.864;4.406;2023-11-19T09:17:38;6.00;;;1.80;;
25731;SDS011;13585;50.864;4.406;2023-11-19T09:20:15;6.07;;;2.05;;
25731;SDS011;13585;50.864;4.406;2023-11-19T09:22:42;6.82;;;2.30;;
25731;SDS011;13585;50.864;4.406;2023-11-19T09:25:07;7.18;;;1.73;;
25731;SDS011;13585;50.864;4.406;2023-11-19T09:27:33;6.25;;;2.10;;
25731;SDS011;13585;50.864;4.406;2023-11-19T09:29:59;6.60;;;1.92;;
25731;SDS011;13585;50.864;4.406;2023-11-19T09:32:36;7.80;;;1.95;;
25731;SDS011;13585;50.864;4.406;2023-11-19T09:35:02;10.50;;;2.20;;
25731;SDS011;13585;50.864;4.406;2023-11-19T09:37:28;6.80;;;2.10;;
25731;SDS011;13585;50.864;4.406;2023-11-19T09:39:54;7.32;;;1.80;;
25731;SDS011;13585;50.864;4.406;2023-11-19T09:42:20;5.20;;;2.00;;
25731;SDS011;13585;50.864;4.406;2023-11-19T09:44:46;9.98;;;2.03;;
25731;SDS011;13585;50.864;4.406;2023-11-19T09:47:16;6.35;;;1.80;;
25731;SDS011;13585;50.864;4.406;2023-11-19T09:49:45;8.18;;;2.00;;
25731;SDS011;13585;50.864;4.406;2023-11-19T09:52:24;8.52;;;1.92;;
25731;SDS011;13585;50.864;4.406;2023-11-19T09:54:53;6.90;;;2.13;;
25731;SDS011;13585;50.864;4.406;2023-11-19T09:57:21;7.93;;;2.08;;
25731;SDS011;13585;50.864;4.406;2023-11-19T09:59:47;9.38;;;2.45;;
25731;SDS011;13585;50.864;4.406;2023-11-19T10:02:20;6.40;;;2.00;;
25731;SDS011;13585;50.864;4.406;2023-11-19T10:07:43;9.15;;;2.92;;
25731;SDS011;13585;50.864;4.406;2023-11-19T10:10:10;9.00;;;2.35;;
25731;SDS011;13585;50.864;4.406;2023-11-19T10:12:43;8.15;;;2.05;;
25731;SDS011;13585;50.864;4.406;2023-11-19T10:15:25;8.80;;;2.22;;
25731;SDS011;13585;50.864;4.406;2023-11-19T10:17:51;6.95;;;2.00;;
25731;SDS011;13585;50.864;4.406;2023-11-19T10:20:40;8.45;;;2.38;;
25731;SDS011;13585;50.864;4.406;2023-11-19T10:23:06;9.15;;;2.47;;
25731;SDS011;13585;50.864;4.406;2023-11-19T10:25:32;12.98;;;2.40;;
25731;SDS011;13585;50.864;4.406;2023-11-19T10:27:58;7.57;;;2.40;;
25731;SDS011;13585;50.864;4.406;2023-11-19T10:30:27;16.63;;;3.47;;
25731;SDS011;13585;50.864;4.406;2023-11-19T10:33:04;7.60;;;2.35;;
25731;SDS011;13585;50.864;4.406;2023-11-19T10:35:31;10.27;;;2.45;;
25731;SDS011;13585;50.864;4.406;2023-11-19T10:37:58;9.93;;;2.72;;
25731;SDS011;13585;50.864;4.406;2023-11-19T10:40:37;6.43;;;2.70;;
25731;SDS011;13585;50.864;4.406;2023-11-19T10:43:03;9.02;;;3.00;;
25731;SDS011;13585;50.864;4.406;2023-11-19T10:45:29;11.45;;;2.90;;
25731;SDS011;13585;50.864;4.406;2023-11-19T10:48:07;12.38;;;3.22;;
25731;SDS011;13585;50.864;4.406;2023-11-19T10:50:33;14.52;;;3.67;;
25731;SDS011;13585;50.864;4.406;2023-11-19T10:53:07;8.80;;;2.50;;
25731;SDS011;13585;50.864;4.406;2023-11-19T10:55:34;13.77;;;3.33;;
25731;SDS011;13585;50.864;4.406;2023-11-19T10:58:04;11.65;;;3.03;;
25731;SDS011;13585;50.864;4.406;2023-11-19T11:00:44;12.02;;;2.97;;
25731;SDS011;13585;50.864;4.406;2023-11-19T11:03:19;9.50;;;2.85;;
25731;SDS011;13585;50.864;4.406;2023-11-19T11:05:49;10.38;;;3.20;;
25731;SDS011;13585;50.864;4.406;2023-11-19T11:08:21;10.55;;;2.60;;
25731;SDS011;13585;50.864;4.406;2023-11-19T11:10:54;13.27;;;2.85;;
25731;SDS011;13585;50.864;4.406;2023-11-19T11:13:22;11.40;;;2.90;;
25731;SDS011;13585;50.864;4.406;2023-11-19T11:15:55;11.13;;;2.53;;
25731;SDS011;13585;50.864;4.406;2023-11-19T11:18:24;8.80;;;2.80;;
25731;SDS011;13585;50.864;4.406;2023-11-19T11:20:52;11.00;;;3.05;;
25731;SDS011;13585;50.864;4.406;2023-11-19T11:28:34;12.32;;;2.97;;
25731;SDS011;13585;50.864;4.406;2023-11-19T11:31:09;10.63;;;2.85;;
25731;SDS011;13585;50.864;4.406;2023-11-19T11:34:07;14.18;;;3.67;;
25731;SDS011;13585;50.864;4.406;2023-11-19T11:39:40;15.43;;;3.53;;
25731;SDS011;13585;50.864;4.406;2023-11-19T11:50:19;11.10;;;2.92;;
25731;SDS011;13585;50.864;4.406;2023-11-19T11:57:59;14.63;;;3.92;;
25731;SDS011;13585;50.864;4.406;2023-11-19T12:00:40;13.38;;;4.10;;
25731;SDS011;13585;50.864;4.406;2023-11-19T12:03:09;15.63;;;3.17;;
25731;SDS011;13585;50.864;4.406;2023-11-19T12:05:43;10.77;;;3.38;;
25731;SDS011;13585;50.864;4.406;2023-11-19T12:08:10;10.77;;;3.08;;
25731;SDS011;13585;50.864;4.406;2023-11-19T12:10:46;11.65;;;2.95;;
25731;SDS011;13585;50.864;4.406;2023-11-19T12:13:16;11.73;;;3.63;;
25731;SDS011;13585;50.864;4.406;2023-11-19T12:18:43;15.00;;;3.38;;
25731;SDS011;13585;50.864;4.406;2023-11-19T12:21:09;17.85;;;3.58;;
25731;SDS011;13585;50.864;4.406;2023-11-19T12:23:55;16.63;;;3.85;;
25731;SDS011;13585;50.864;4.406;2023-11-19T12:29:21;11.75;;;3.08;;
25731;SDS011;13585;50.864;4.406;2023-11-19T12:31:53;15.55;;;3.10;;
25731;SDS011;13585;50.864;4.406;2023-11-19T12:34:19;13.07;;;3.65;;
25731;SDS011;13585;50.864;4.406;2023-11-19T12:36:48;14.90;;;3.28;;
25731;SDS011;13585;50.864;4.406;2023-11-19T12:39:14;12.35;;;3.10;;
25731;SDS011;13585;50.864;4.406;2023-11-19T12:41:49;9.23;;;3.40;;
25731;SDS011;13585;50.864;4.406;2023-11-19T12:44:16;12.10;;;3.13;;
25731;SDS011;13585;50.864;4.406;2023-11-19T12:46:41;13.23;;;3.78;;
25731;SDS011;13585;50.864;4.406;2023-11-19T12:49:07;13.00;;;2.97;;
25731;SDS011;13585;50.864;4.406;2023-11-19T12:51:36;9.10;;;2.90;;
25731;SDS011;13585;50.864;4.406;2023-11-19T12:54:01;12.57;;;3.20;;
25731;SDS011;13585;50.864;4.406;2023-11-19T12:56:27;7.72;;;2.72;;
25731;SDS011;13585;50.864;4.406;2023-11-19T12:58:54;11.27;;;3.58;;
25731;SDS011;13585;50.864;4.406;2023-11-19T13:01:20;12.18;;;3.25;;
25731;SDS011;13585;50.864;4.406;2023-11-19T13:03:54;12.52;;;3.20;;
25731;SDS011;13585;50.864;4.406;2023-11-19T13:06:20;13.90;;;3.33;;
25731;SDS011;13585;50.864;4.406;2023-11-19T13:08:47;10.68;;;2.70;;
25731;SDS011;13585;50.864;4.406;2023-11-19T13:11:33;12.38;;;3.28;;
25731;SDS011;13585;50.864;4.406;2023-11-19T13:14:12;8.80;;;3.17;;
25731;SDS011;13585;50.864;4.406;2023-11-19T13:16:50;9.27;;;2.85;;
25731;SDS011;13585;50.864;4.406;2023-11-19T13:19:16;10.85;;;3.38;;
25731;SDS011;13585;50.864;4.406;2023-11-19T13:21:43;12.85;;;3.33;;
25731;SDS011;13585;50.864;4.406;2023-11-19T13:24:11;9.70;;;2.92;;
25731;SDS011;13585;50.864;4.406;2023-11-19T13:26:38;12.27;;;3.10;;
25731;SDS011;13585;50.864;4.406;2023-11-19T13:29:03;8.35;;;2.65;;
25731;SDS011;13585;50.864;4.406;2023-11-19T13:31:44;9.93;;;3.30;;
25731;SDS011;13585;50.864;4.406;2023-11-19T13:34:10;8.32;;;2.75;;
25731;SDS011;13585;50.864;4.406;2023-11-19T13:36:35;11.30;;;3.20;;
25731;SDS011;13585;50.864;4.406;2023-11-19T13:39:01;9.98;;;2.75;;
25731;SDS011;13585;50.864;4.406;2023-11-19T13:41:27;10.35;;;2.70;;
25731;SDS011;13585;50.864;4.406;2023-11-19T13:44:04;9.80;;;3.20;;
25731;SDS011;13585;50.864;4.406;2023-11-19T13:46:48;8.07;;;2.95;;
25731;SDS011;13585;50.864;4.406;2023-11-19T13:49:23;11.10;;;3.30;;
25731;SDS011;13585;50.864;4.406;2023-11-19T13:51:49;9.55;;;2.35;;
25731;SDS011;13585;50.864;4.406;2023-11-19T13:54:19;7.13;;;2.70;;
25731;SDS011;13585;50.864;4.406;2023-11-19T13:56:54;6.88;;;2.72;;
25731;SDS011;13585;50.864;4.406;2023-11-19T13:59:40;9.48;;;2.95;;
25731;SDS011;13585;50.864;4.406;2023-11-19T14:02:07;9.25;;;2.67;;
25731;SDS011;13585;50.864;4.406;2023-11-19T14:04:33;8.77;;;2.60;;
25731;SDS011;13585;50.864;4.406;2023-11-19T14:06:58;9.52;;;2.88;;
25731;SDS011;13585;50.864;4.406;2023-11-19T14:09:39;7.90;;;2.65;;
25731;SDS011;13585;50.864;4.406;2023-11-19T14:12:07;7.95;;;2.70;;
25731;SDS011;13585;50.864;4.406;2023-11-19T14:14:34;9.05;;;2.50;;
25731;SDS011;13585;50.864;4.406;2023-11-19T14:17:01;8.80;;;2.78;;
25731;SDS011;13585;50.864;4.406;2023-11-19T14:19:28;8.52;;;2.75;;
25731;SDS011;13585;50.864;4.406;2023-11-19T14:21:59;10.13;;;3.38;;
25731;SDS011;13585;50.864;4.406;2023-11-19T14:24:28;8.38;;;2.40;;
25731;SDS011;13585;50.864;4.406;2023-11-19T14:27:05;11.00;;;2.97;;
25731;SDS011;13585;50.864;4.406;2023-11-19T14:29:31;9.75;;;2.90;;
25731;SDS011;13585;50.864;4.406;2023-11-19T14:31:57;6.90;;;2.42;;
25731;SDS011;13585;50.864;4.406;2023-11-19T14:34:24;7.38;;;2.50;;
25731;SDS011;13585;50.864;4.406;2023-11-19T14:36:51;8.80;;;2.75;;
25731;SDS011;13585;50.864;4.406;2023-11-19T14:39:17;9.70;;;2.88;;
25731;SDS011;13585;50.864;4.406;2023-11-19T14:41:43;9.50;;;2.67;;
25731;SDS011;13585;50.864;4.406;2023-11-19T14:44:29;9.52;;;3.05;;
25731;SDS011;13585;50.864;4.406;2023-11-19T14:46:54;7.13;;;2.63;;
25731;SDS011;13585;50.864;4.406;2023-11-19T14:49:20;7.75;;;2.55;;
25731;SDS011;13585;50.864;4.406;2023-11-19T14:51:46;7.65;;;2.30;;
25731;SDS011;13585;50.864;4.406;2023-11-19T14:54:11;8.85;;;2.22;;
25731;SDS011;13585;50.864;4.406;2023-11-19T14:56:42;8.25;;;2.50;;
25731;SDS011;13585;50.864;4.406;2023-11-19T14:59:09;6.45;;;2.45;;
25731;SDS011;13585;50.864;4.406;2023-11-19T15:01:35;8.63;;;2.75;;
25731;SDS011;13585;50.864;4.406;2023-11-19T15:04:00;7.07;;;2.63;;
25731;SDS011;13585;50.864;4.406;2023-11-19T15:06:26;7.43;;;2.28;;
25731;SDS011;13585;50.864;4.406;2023-11-19T15:08:52;8.60;;;2.35;;
25731;SDS011;13585;50.864;4.406;2023-11-19T15:11:27;7.45;;;2.40;;
25731;SDS011;13585;50.864;4.406;2023-11-19T15:13:53;7.43;;;2.33;;
25731;SDS011;13585;50.864;4.406;2023-11-19T15:16:19;7.65;;;2.50;;
25731;SDS011;13585;50.864;4.406;2023-11-19T15:18:50;9.30;;;2.30;;
25731;SDS011;13585;50.864;4.406;2023-11-19T15:21:38;8.75;;;2.47;;
25731;SDS011;13585;50.864;4.406;2023-11-19T15:24:04;10.25;;;2.40;;
25731;SDS011;13585;50.864;4.406;2023-11-19T15:26:33;12.05;;;2.88;;
25731;SDS011;13585;50.864;4.406;2023-11-19T15:29:16;8.27;;;2.38;;
25731;SDS011;13585;50.864;4.406;2023-11-19T15:31:41;5.53;;;2.17;;
25731;SDS011;13585;50.864;4.406;2023-11-19T15:34:07;7.13;;;2.42;;
25731;SDS011;13585;50.864;4.406;2023-11-19T15:36:33;9.57;;;2.72;;
25731;SDS011;13585;50.864;4.406;2023-11-19T15:39:00;8.75;;;3.05;;
25731;SDS011;13585;50.864;4.406;2023-11-19T15:41:26;9.18;;;2.42;;
25731;SDS011;13585;50.864;4.406;2023-11-19T15:43:52;7.28;;;2.65;;
25731;SDS011;13585;50.864;4.406;2023-11-19T15:46:19;9.35;;;2.78;;